Weather reports worldwide

Advertisment
Santon Downham, United Kingdom (99118): temperature & dewpoint: 14.06.2019 13:00:00 - 20.06.2019 13:00:00 (BST)Santon Downham, United Kingdom (99118): temperature -20cm & temperature -100cm: 14.06.2019 13:00:00 - 20.06.2019 13:00:00 (BST)Santon Downham, United Kingdom (99118): precipitation: 14.06.2019 13:00:00 - 20.06.2019 13:00:00 (BST)
Date & Time tt [°C] td [°C] tt -20cm [°C] tt -100cm [°C] rr [mm]
20.06.2019 13:00:00 - - - - -
20.06.2019 12:00:00 19,2 10,2 - - 0,0
20.06.2019 11:00:00 18,6 10,3 - - 0,0
20.06.2019 10:00:00 16,9 11,0 16,0 14,4 0,0
20.06.2019 09:00:00 16,3 12,7 - - 0,0
20.06.2019 08:00:00 14,6 13,2 - - 0,0
20.06.2019 07:00:00 13,2 12,9 - - 0,0
20.06.2019 06:00:00 12,9 12,5 - - 0,0
20.06.2019 05:00:00 13,2 12,9 - - 0,0
20.06.2019 04:00:00 13,4 13,1 - - 0,2
20.06.2019 03:00:00 13,1 12,8 - - 0,0
20.06.2019 02:00:00 13,4 13,0 - - 0,0
20.06.2019 01:00:00 13,4 12,9 - - 0,0
20.06.2019 00:00:00 14,3 14,0 - - 0,0
19.06.2019 23:00:00 14,4 13,9 - - 0,0
19.06.2019 22:00:00 15,0 14,4 - - 0,0
19.06.2019 21:00:00 15,5 14,7 - - 4,2
19.06.2019 20:00:00 17,0 15,5 - - 0,0
19.06.2019 19:00:00 17,6 15,5 - - 0,0
19.06.2019 18:00:00 16,9 16,0 - - 0,8
19.06.2019 17:00:00 16,1 14,9 - - 2,2
19.06.2019 16:00:00 19,4 14,5 - - 0,0
19.06.2019 15:00:00 18,8 14,7 - - 0,0
19.06.2019 14:00:00 17,8 14,3 - - 0,0
19.06.2019 13:00:00 16,4 14,4 - - 0,0
19.06.2019 12:00:00 15,7 13,8 - - 0,0
19.06.2019 11:00:00 15,3 13,7 - - 0,0
19.06.2019 10:00:00 15,0 13,5 16,0 14,2 0,0
19.06.2019 09:00:00 14,6 13,5 - - 0,0
19.06.2019 08:00:00 14,0 13,4 - - 0,0
19.06.2019 07:00:00 13,3 13,0 - - 0,0
19.06.2019 06:00:00 12,5 12,2 - - 0,0
19.06.2019 05:00:00 11,6 11,1 - - 0,2
19.06.2019 04:00:00 12,5 11,9 - - 0,0
19.06.2019 03:00:00 12,9 12,4 - - 0,2
19.06.2019 02:00:00 13,1 12,6 - - 0,4
19.06.2019 01:00:00 13,3 12,8 - - 0,0
19.06.2019 00:00:00 13,6 13,0 - - 0,0
18.06.2019 23:00:00 14,3 13,7 - - 0,0
18.06.2019 22:00:00 15,4 14,9 - - 5,2
18.06.2019 21:00:00 15,8 15,1 - - 0,0
18.06.2019 20:00:00 16,0 15,2 - - 3,8
18.06.2019 19:00:00 16,8 15,3 - - 1,0
18.06.2019 18:00:00 18,1 14,6 - - 0,2
18.06.2019 17:00:00 19,3 12,8 - - 0,0
18.06.2019 16:00:00 19,3 12,4 - - 0,0
18.06.2019 15:00:00 19,8 11,5 - - 0,0
18.06.2019 14:00:00 20,2 11,4 - - 0,0
18.06.2019 13:00:00 20,3 12,4 - - 0,0
18.06.2019 12:00:00 19,8 12,0 - - 0,0
18.06.2019 11:00:00 18,9 10,8 - - 0,0
18.06.2019 10:00:00 18,3 12,2 15,7 14,0 0,0
18.06.2019 09:00:00 16,9 11,7 - - 0,0
18.06.2019 08:00:00 14,3 13,7 - - 0,0
18.06.2019 07:00:00 10,5 10,4 - - 0,0
18.06.2019 06:00:00 8,1 7,8 - - 0,0
18.06.2019 05:00:00 7,9 7,7 - - 0,0
18.06.2019 04:00:00 7,8 7,4 - - 0,0
18.06.2019 03:00:00 8,4 7,9 - - 0,0
18.06.2019 02:00:00 9,1 8,6 - - 0,0
18.06.2019 01:00:00 9,7 8,8 - - 0,0
18.06.2019 00:00:00 11,2 9,9 - - 0,0
17.06.2019 23:00:00 13,0 11,2 - - 0,0
17.06.2019 22:00:00 14,2 11,2 - - 0,0
17.06.2019 21:00:00 17,2 10,7 - - 0,0
17.06.2019 20:00:00 19,8 9,8 - - 0,0
17.06.2019 19:00:00 21,2 10,1 - - 0,0
17.06.2019 18:00:00 21,5 9,5 - - 0,0
17.06.2019 17:00:00 22,8 10,3 - - 0,0
17.06.2019 16:00:00 22,1 10,0 - - 0,0
17.06.2019 15:00:00 21,1 10,0 - - 0,0
17.06.2019 14:00:00 21,0 11,0 - - 0,0
17.06.2019 13:00:00 20,8 9,8 - - 0,0
17.06.2019 12:00:00 19,8 11,3 - - 0,0
17.06.2019 11:00:00 17,7 9,8 - - 0,0
17.06.2019 10:00:00 17,6 10,3 15,2 14,0 0,0
17.06.2019 09:00:00 17,2 10,3 - - 0,0
17.06.2019 08:00:00 15,4 10,6 - - 0,0
17.06.2019 07:00:00 14,2 10,7 - - 0,0
17.06.2019 06:00:00 12,5 10,5 - - 0,0
17.06.2019 05:00:00 11,6 10,3 - - 0,0
17.06.2019 04:00:00 12,1 9,9 - - 0,0
17.06.2019 03:00:00 12,4 9,6 - - 0,0
17.06.2019 02:00:00 12,8 9,3 - - 0,0
17.06.2019 01:00:00 13,5 9,4 - - 0,0
17.06.2019 00:00:00 14,1 9,6 - - 0,0
16.06.2019 23:00:00 15,2 10,5 - - 0,0
16.06.2019 22:00:00 16,0 10,8 - - 0,0
16.06.2019 21:00:00 17,4 10,9 - - 0,0
16.06.2019 20:00:00 18,3 11,3 - - 0,0
16.06.2019 19:00:00 19,8 11,4 - - 0,0
16.06.2019 18:00:00 20,1 10,5 - - 0,0
16.06.2019 17:00:00 20,4 10,6 - - 0,0
16.06.2019 16:00:00 19,2 13,7 - - 0,2
16.06.2019 15:00:00 20,4 11,7 - - 0,0
16.06.2019 14:00:00 20,3 12,5 - - 0,0
16.06.2019 13:00:00 18,5 12,6 - - 0,0
16.06.2019 12:00:00 16,2 12,2 - - 0,2
16.06.2019 11:00:00 16,2 10,7 - - 0,0
16.06.2019 10:00:00 15,8 11,0 14,9 13,9 0,0
16.06.2019 09:00:00 14,8 10,4 - - 0,0
16.06.2019 08:00:00 14,1 9,9 - - 0,0
16.06.2019 07:00:00 11,4 10,0 - - 0,0
16.06.2019 06:00:00 9,9 9,4 - - 0,0
16.06.2019 05:00:00 9,1 8,9 - - 0,0
16.06.2019 04:00:00 8,2 7,7 - - 0,0
16.06.2019 03:00:00 9,6 9,0 - - 0,0
16.06.2019 02:00:00 10,5 9,6 - - 0,0
16.06.2019 01:00:00 11,5 10,1 - - 0,0
16.06.2019 00:00:00 13,4 11,6 - - 0,0
15.06.2019 23:00:00 14,1 11,5 - - 0,0
15.06.2019 22:00:00 14,8 10,9 - - 0,0
15.06.2019 21:00:00 16,0 10,9 - - 0,0
15.06.2019 20:00:00 17,0 10,2 - - 0,0
15.06.2019 19:00:00 17,5 10,4 - - 0,0
15.06.2019 18:00:00 18,8 10,1 - - 0,0
15.06.2019 17:00:00 18,4 9,6 - - 0,0
15.06.2019 16:00:00 18,1 8,7 - - 0,0
15.06.2019 15:00:00 18,3 9,3 - - 0,0
15.06.2019 14:00:00 17,7 9,4 - - 0,0
15.06.2019 13:00:00 19,0 9,9 - - 0,0
15.06.2019 12:00:00 18,8 9,6 - - 0,0
15.06.2019 11:00:00 18,6 8,7 - - 0,0
15.06.2019 10:00:00 17,3 9,7 14,7 13,7 0,0
15.06.2019 09:00:00 14,7 11,6 - - 0,0
15.06.2019 08:00:00 11,5 11,3 - - 0,0
15.06.2019 07:00:00 10,4 10,2 - - 0,0
15.06.2019 06:00:00 8,9 8,7 - - 0,0
15.06.2019 05:00:00 8,2 8,0 - - 0,0
15.06.2019 04:00:00 7,9 7,6 - - 0,0
15.06.2019 03:00:00 8,5 8,3 - - 0,0
15.06.2019 02:00:00 8,3 7,9 - - 0,0
15.06.2019 01:00:00 8,6 8,1 - - 0,0
15.06.2019 00:00:00 9,2 8,6 - - 0,0
14.06.2019 23:00:00 10,4 9,3 - - 0,0
14.06.2019 22:00:00 12,8 10,4 - - 0,0
14.06.2019 21:00:00 15,8 9,9 - - 0,0
14.06.2019 20:00:00 17,5 10,0 - - 0,0
14.06.2019 19:00:00 18,3 9,8 - - 0,0
14.06.2019 18:00:00 18,4 10,7 - - 0,0
14.06.2019 17:00:00 17,3 10,4 - - 0,0
14.06.2019 16:00:00 19,0 11,3 - - 0,0
14.06.2019 15:00:00 17,7 10,8 - - 0,0
14.06.2019 14:00:00 18,1 10,7 - - 0,0
14.06.2019 13:00:00 17,5 12,9 - - 0,0

tt = temperature
td = dewpoint
tt -20cm = temperature -20cm
tt -100cm = temperature -100cm
rr = precipitation

Next stations